createdAt,value
2024-03-02T00:00:41.226Z,54.55
2024-03-02T00:03:10.684Z,54.71
2024-03-02T00:05:37.503Z,54.63
2024-03-02T00:08:06.205Z,54.87
2024-03-02T00:10:42.657Z,54.61
2024-03-02T00:13:10.019Z,54.78
2024-03-02T00:15:48.331Z,54.63
2024-03-02T00:18:26.062Z,54.79
2024-03-02T00:20:57.192Z,54.85
2024-03-02T00:23:24.565Z,55.02
2024-03-02T00:25:56.034Z,54.92
2024-03-02T00:28:37.090Z,54.62
2024-03-02T00:31:14.603Z,54.96
2024-03-02T00:33:47.425Z,54.92
2024-03-02T00:36:16.240Z,54.95
2024-03-02T00:38:48.374Z,54.94
2024-03-02T00:41:30.075Z,54.91
2024-03-02T00:43:58.513Z,54.88
2024-03-02T00:46:25.302Z,55.02
2024-03-02T00:49:00.239Z,55.12
2024-03-02T00:51:32.022Z,54.97
2024-03-02T00:54:05.543Z,55.07
2024-03-02T00:56:33.400Z,55.20
2024-03-02T00:58:59.872Z,55.25
2024-03-02T01:01:26.400Z,55.12
2024-03-02T01:03:53.872Z,55.42
2024-03-02T01:06:20.754Z,55.08
2024-03-02T01:08:51.518Z,55.13
2024-03-02T01:11:25.240Z,55.16
2024-03-02T01:13:53.616Z,55.53
2024-03-02T01:16:20.313Z,55.72
2024-03-02T01:18:46.984Z,55.73
2024-03-02T01:21:13.981Z,55.62
2024-03-02T01:23:40.403Z,55.71
2024-03-02T01:26:06.878Z,55.34
2024-03-02T01:28:33.304Z,55.77
2024-03-02T01:30:59.826Z,55.38
2024-03-02T01:33:26.253Z,55.52
2024-03-02T01:35:52.830Z,55.62
2024-03-02T01:38:19.278Z,55.47
2024-03-02T01:40:45.852Z,55.72
2024-03-02T01:43:12.739Z,55.72
2024-03-02T01:45:39.316Z,55.76
2024-03-02T01:48:07.986Z,55.78
2024-03-02T01:50:35.322Z,55.73
2024-03-02T01:53:02.914Z,55.80
2024-03-02T01:55:31.489Z,55.56
2024-03-02T01:57:59.477Z,55.94
2024-03-02T02:00:27.568Z,55.73
2024-03-02T02:02:55.091Z,56.04
2024-03-02T02:05:21.658Z,55.65
2024-03-02T02:07:48.302Z,55.83
2024-03-02T02:10:14.784Z,56.07
2024-03-02T02:12:41.477Z,56.12
2024-03-02T02:15:28.150Z,55.70
2024-03-02T02:17:56.696Z,56.06
2024-03-02T02:20:23.421Z,56.31
2024-03-02T02:23:04.253Z,55.94
2024-03-02T02:25:31.270Z,56.41
2024-03-02T02:27:58.627Z,56.06
2024-03-02T02:30:30.471Z,56.31
2024-03-02T02:32:57.590Z,56.24
2024-03-02T02:35:25.431Z,56.22
2024-03-02T02:37:54.129Z,56.46
2024-03-02T02:40:20.839Z,56.13
2024-03-02T02:42:47.514Z,56.26
2024-03-02T02:45:15.801Z,56.40
2024-03-02T02:47:43.510Z,56.40
2024-03-02T02:50:10.722Z,55.95
2024-03-02T02:52:40.723Z,56.22
2024-03-02T02:55:10.129Z,55.97
2024-03-02T02:57:38.983Z,56.19
2024-03-02T03:00:18.308Z,56.15
2024-03-02T03:02:51.319Z,55.99
2024-03-02T03:05:18.967Z,56.20
2024-03-02T03:07:46.430Z,56.37
2024-03-02T03:10:14.693Z,56.12
2024-03-02T03:12:43.097Z,56.34
2024-03-02T03:15:11.088Z,56.13
2024-03-02T03:17:38.533Z,56.49
2024-03-02T03:20:06.682Z,56.42
2024-03-02T03:22:33.249Z,56.27
2024-03-02T03:25:00.098Z,56.35
2024-03-02T03:27:27.511Z,56.60
2024-03-02T03:29:54.004Z,56.57
2024-03-02T03:32:20.789Z,56.46
2024-03-02T03:34:49.063Z,56.29
2024-03-02T03:39:45.567Z,56.69
2024-03-02T03:42:12.042Z,56.42
2024-03-02T03:44:38.443Z,56.94
2024-03-02T03:47:05.003Z,56.95
2024-03-02T03:49:31.517Z,57.03
2024-03-02T03:51:58.018Z,57.17
2024-03-02T03:54:24.569Z,57.02
2024-03-02T03:56:51.077Z,56.88
2024-03-02T03:59:17.473Z,57.14
2024-03-02T04:01:43.971Z,57.37
2024-03-02T04:04:10.420Z,56.95
2024-03-02T04:06:36.918Z,57.14
2024-03-02T04:09:05.029Z,57.37
2024-03-02T04:11:31.779Z,57.36
2024-03-02T04:13:59.120Z,57.08
2024-03-02T04:16:25.770Z,57.01
2024-03-02T04:18:52.202Z,57.51
2024-03-02T04:21:18.619Z,57.03
2024-03-02T04:23:45.062Z,57.29
2024-03-02T04:26:11.602Z,57.44
2024-03-02T04:28:38.059Z,57.45
2024-03-02T04:31:04.737Z,57.30
2024-03-02T04:33:31.275Z,57.55
2024-03-02T04:35:58.746Z,57.36
2024-03-02T04:38:25.289Z,57.56
2024-03-02T04:40:51.709Z,57.61
2024-03-02T04:43:18.133Z,57.64
2024-03-02T04:45:44.667Z,57.92
2024-03-02T04:48:11.235Z,57.93
2024-03-02T04:50:37.654Z,58.05
2024-03-02T04:53:04.263Z,57.77
2024-03-02T04:55:50.635Z,57.84
2024-03-02T04:58:17.162Z,58.15
2024-03-02T05:00:44.190Z,58.08
2024-03-02T05:03:10.733Z,57.78
2024-03-02T05:05:38.195Z,57.89
2024-03-02T05:08:04.985Z,57.89
2024-03-02T05:10:31.792Z,58.13
2024-03-02T05:13:00.145Z,58.01
2024-03-02T05:15:26.805Z,58.48
2024-03-02T05:17:53.931Z,58.39
2024-03-02T05:20:20.412Z,58.39
2024-03-02T05:22:48.383Z,58.27
2024-03-02T05:25:14.821Z,58.08
2024-03-02T05:27:41.409Z,58.13
2024-03-02T05:30:08.596Z,58.13
2024-03-02T05:32:35.446Z,58.10
2024-03-02T05:35:02.038Z,58.43
2024-03-02T05:37:28.844Z,58.26
2024-03-02T05:39:55.314Z,58.52
2024-03-02T05:42:21.941Z,58.39
2024-03-02T05:44:48.449Z,58.54
2024-03-02T05:47:15.166Z,58.89
2024-03-02T05:49:41.703Z,58.58
2024-03-02T05:52:08.296Z,58.95
2024-03-02T05:54:34.760Z,58.76
2024-03-02T05:57:17.928Z,59.11
2024-03-02T05:59:47.200Z,59.00
2024-03-02T06:02:13.641Z,58.64
2024-03-02T06:04:40.197Z,58.53
2024-03-02T06:07:06.840Z,58.70
2024-03-02T06:09:33.427Z,58.83
2024-03-02T06:11:59.920Z,58.86
2024-03-02T06:14:26.409Z,59.15
2024-03-02T06:16:52.987Z,59.11
2024-03-02T06:19:19.412Z,58.86
2024-03-02T06:21:45.910Z,59.05
2024-03-02T06:24:12.417Z,58.83
2024-03-02T06:26:38.900Z,59.02
2024-03-02T06:29:05.385Z,59.00
2024-03-02T06:31:31.891Z,59.45
2024-03-02T06:33:58.306Z,59.12
2024-03-02T06:36:24.814Z,59.34
2024-03-02T06:38:51.572Z,59.59
2024-03-02T06:41:18.113Z,59.57
2024-03-02T06:43:44.812Z,59.49
2024-03-02T06:46:11.276Z,59.45
2024-03-02T06:48:37.812Z,59.80
2024-03-02T06:51:04.546Z,59.47
2024-03-02T06:53:31.363Z,59.65
2024-03-02T06:55:57.880Z,59.69
2024-03-02T06:58:24.337Z,59.91
2024-03-02T07:00:50.727Z,60.24
2024-03-02T07:03:17.211Z,60.14
2024-03-02T07:05:44.061Z,59.94
2024-03-02T07:08:10.477Z,60.02
2024-03-02T07:10:36.873Z,60.11
2024-03-02T07:13:03.486Z,60.40
2024-03-02T07:15:30.304Z,60.06
2024-03-02T07:17:56.967Z,60.44
2024-03-02T07:20:23.584Z,60.41
2024-03-02T07:22:50.653Z,60.17
2024-03-02T07:27:46.991Z,59.96
2024-03-02T07:30:19.313Z,60.35
2024-03-02T07:32:46.916Z,59.89
2024-03-02T07:35:16.422Z,59.73
2024-03-02T07:37:43.405Z,59.98
2024-03-02T07:40:13.712Z,59.85
2024-03-02T07:42:41.285Z,59.52
2024-03-02T07:45:09.166Z,59.56
2024-03-02T07:47:36.149Z,59.23
2024-03-02T07:50:03.381Z,59.28
2024-03-02T07:52:30.071Z,58.81
2024-03-02T07:54:56.526Z,58.94
2024-03-02T07:57:23.220Z,58.82
2024-03-02T07:59:50.252Z,58.90
2024-03-02T08:02:16.778Z,58.49
2024-03-02T08:04:43.289Z,58.49
2024-03-02T08:07:10.423Z,58.43
2024-03-02T08:09:37.014Z,58.27
2024-03-02T08:12:03.741Z,57.81
2024-03-02T08:14:30.125Z,58.19
2024-03-02T08:16:56.673Z,57.60
2024-03-02T08:19:23.914Z,57.32
2024-03-02T08:21:50.449Z,57.37
2024-03-02T08:24:17.601Z,57.44
2024-03-02T08:26:44.116Z,57.45
2024-03-02T08:29:10.677Z,57.31
2024-03-02T08:31:38.917Z,57.28
2024-03-02T08:34:06.131Z,56.98
2024-03-02T08:36:32.684Z,56.73
2024-03-02T08:38:59.161Z,56.33
2024-03-02T08:41:25.684Z,56.14
2024-03-02T08:43:52.380Z,55.85
2024-03-02T08:46:18.804Z,55.74
2024-03-02T08:48:45.256Z,55.18
2024-03-02T08:51:11.731Z,54.82
2024-03-02T08:53:38.727Z,54.33
2024-03-02T08:56:06.436Z,54.69
2024-03-02T08:58:33.482Z,54.54
2024-03-02T09:01:00.058Z,54.28
2024-03-02T09:03:26.629Z,54.12
2024-03-02T09:05:53.077Z,54.09
2024-03-02T09:08:19.569Z,53.92
2024-03-02T09:10:46.190Z,53.93
2024-03-02T09:13:12.788Z,53.45
2024-03-02T09:15:40.940Z,53.47
2024-03-02T09:18:07.948Z,53.29
2024-03-02T09:20:34.613Z,53.28
2024-03-02T09:23:01.149Z,52.83
2024-03-02T09:25:27.749Z,52.96
2024-03-02T09:27:55.285Z,52.86
2024-03-02T09:30:21.739Z,52.92
2024-03-02T09:32:50.499Z,52.58
2024-03-02T09:35:17.347Z,52.73
2024-03-02T09:37:46.697Z,52.56
2024-03-02T09:40:14.808Z,52.07
2024-03-02T09:42:42.072Z,52.21
2024-03-02T09:45:09.931Z,52.04
2024-03-02T09:47:36.698Z,51.77
2024-03-02T09:50:03.158Z,51.67
2024-03-02T09:52:29.838Z,51.82
2024-03-02T09:54:56.243Z,51.74
2024-03-02T09:57:22.890Z,51.41
2024-03-02T09:59:49.504Z,51.37
2024-03-02T10:02:15.940Z,51.06
2024-03-02T10:04:42.373Z,50.63
2024-03-02T10:07:16.821Z,50.86
2024-03-02T10:09:44.753Z,50.61
2024-03-02T10:12:12.894Z,50.72
2024-03-02T10:14:40.236Z,50.20
2024-03-02T10:17:11.515Z,50.39
2024-03-02T10:19:39.929Z,50.39
2024-03-02T10:22:09.432Z,50.17
2024-03-02T10:24:46.673Z,50.16
2024-03-02T10:27:26.557Z,50.22
2024-03-02T10:29:53.017Z,50.23
2024-03-02T10:32:19.446Z,49.75
2024-03-02T10:34:48.227Z,49.97
2024-03-02T10:37:16.025Z,49.76
2024-03-02T10:39:42.766Z,49.54
2024-03-02T10:42:10.320Z,49.76
2024-03-02T10:44:36.828Z,49.47
2024-03-02T10:47:05.484Z,49.48
2024-03-02T10:49:33.117Z,49.31
2024-03-02T10:52:00.524Z,48.79
2024-03-02T10:54:30.071Z,48.94
2024-03-02T10:57:04.490Z,49.18
2024-03-02T10:59:34.998Z,48.98
2024-03-02T11:02:05.778Z,48.66
2024-03-02T11:04:33.796Z,48.09
2024-03-02T11:07:07.256Z,48.22
2024-03-02T11:09:41.562Z,47.46
2024-03-02T11:12:16.837Z,47.36
2024-03-02T11:14:46.145Z,46.29
2024-03-02T11:17:16.960Z,46.56
2024-03-02T11:19:45.053Z,46.15
2024-03-02T11:22:12.583Z,45.66
2024-03-02T11:24:39.456Z,45.52
2024-03-02T11:27:08.875Z,45.40
2024-03-02T11:29:41.505Z,45.43
2024-03-02T11:32:18.615Z,45.22
2024-03-02T11:34:47.889Z,44.99
2024-03-02T11:37:15.507Z,44.57
2024-03-02T11:39:42.190Z,44.47
2024-03-02T11:42:10.873Z,43.99
2024-03-02T11:44:38.805Z,44.22
2024-03-02T11:47:09.830Z,44.53
2024-03-02T11:49:41.788Z,44.52
2024-03-02T11:52:10.711Z,44.71
2024-03-02T11:54:40.649Z,44.35
2024-03-02T11:57:08.189Z,44.18
2024-03-02T11:59:34.860Z,44.17
2024-03-02T12:02:01.908Z,44.14
2024-03-02T12:04:28.386Z,44.21
2024-03-02T12:07:01.094Z,44.09
2024-03-02T12:09:28.748Z,43.87
2024-03-02T12:12:10.970Z,44.48
2024-03-02T12:14:39.619Z,44.30
2024-03-02T12:17:06.907Z,43.96
2024-03-02T12:19:34.426Z,43.75
2024-03-02T12:22:01.961Z,43.54
2024-03-02T12:24:30.329Z,43.48
2024-03-02T12:26:57.808Z,43.34
2024-03-02T12:29:25.236Z,42.87
2024-03-02T12:31:55.859Z,43.29
2024-03-02T12:34:24.124Z,43.13
2024-03-02T12:36:53.818Z,43.25
2024-03-02T12:39:21.471Z,42.78
2024-03-02T12:41:48.101Z,42.72
2024-03-02T12:44:14.548Z,42.50
2024-03-02T12:46:41.154Z,42.33
2024-03-02T12:49:17.099Z,42.46
2024-03-02T12:51:43.899Z,43.75
2024-03-02T12:54:11.717Z,41.85
2024-03-02T12:56:38.906Z,41.90
2024-03-02T12:59:06.102Z,41.48
2024-03-02T13:01:33.530Z,41.45
2024-03-02T13:04:00.289Z,41.58
2024-03-02T13:06:30.672Z,41.51
2024-03-02T13:08:57.160Z,41.51
2024-03-02T13:11:27.086Z,41.30
2024-03-02T13:13:53.585Z,41.14
2024-03-02T13:16:27.172Z,40.81
2024-03-02T13:18:57.052Z,40.85
2024-03-02T13:21:23.612Z,40.74
2024-03-02T13:23:50.048Z,40.54
2024-03-02T13:26:16.561Z,40.81
2024-03-02T13:28:43.002Z,41.02
2024-03-02T13:31:09.448Z,40.39
2024-03-02T13:33:36.040Z,40.08
2024-03-02T13:36:03.932Z,39.79
2024-03-02T13:38:30.385Z,39.70
2024-03-02T13:40:56.941Z,39.68
2024-03-02T13:43:24.917Z,39.54
2024-03-02T13:45:53.092Z,39.77
2024-03-02T13:48:19.639Z,39.75
2024-03-02T13:50:46.968Z,39.41
2024-03-02T13:53:13.431Z,39.60
2024-03-02T13:55:39.962Z,39.45
2024-03-02T13:58:06.830Z,39.35
2024-03-02T14:00:33.371Z,39.30
2024-03-02T14:03:00.050Z,39.20
2024-03-02T14:05:26.460Z,39.32
2024-03-02T14:07:53.316Z,39.29
2024-03-02T14:10:23.493Z,39.42
2024-03-02T14:12:50.265Z,38.99
2024-03-02T14:15:18.510Z,39.04
2024-03-02T14:17:45.330Z,39.39
2024-03-02T14:20:13.405Z,39.05
2024-03-02T14:22:40.284Z,39.10
2024-03-02T14:25:07.318Z,38.93
2024-03-02T14:27:50.213Z,38.92
2024-03-02T14:30:20.109Z,40.70
2024-03-02T14:32:46.466Z,41.20
2024-03-02T14:35:12.944Z,39.31
2024-03-02T14:37:39.654Z,39.77
2024-03-02T14:40:07.516Z,39.76
2024-03-02T14:42:34.083Z,39.63
2024-03-02T14:45:01.110Z,39.99
2024-03-02T14:47:27.609Z,39.67
2024-03-02T14:49:54.063Z,39.73
2024-03-02T14:52:20.568Z,39.71
2024-03-02T14:54:48.078Z,39.60
2024-03-02T14:57:14.563Z,39.35
2024-03-02T14:59:41.071Z,39.29
2024-03-02T15:02:09.325Z,39.82
2024-03-02T15:04:36.534Z,39.83
2024-03-02T15:07:03.220Z,39.87
2024-03-02T15:09:29.720Z,39.81
2024-03-02T15:11:56.155Z,39.66
2024-03-02T15:14:22.873Z,39.76
2024-03-02T15:16:50.249Z,40.01
2024-03-02T15:19:17.380Z,39.95
2024-03-02T15:21:43.953Z,39.96
2024-03-02T15:24:10.401Z,40.03
2024-03-02T15:26:36.880Z,40.31
2024-03-02T15:29:03.454Z,40.29
2024-03-02T15:31:29.861Z,40.94
2024-03-02T15:33:58.207Z,40.73
2024-03-02T15:36:24.972Z,40.89
2024-03-02T15:38:51.479Z,41.32
2024-03-02T15:41:17.968Z,41.52
2024-03-02T15:43:44.374Z,41.44
2024-03-02T15:46:11.270Z,41.43
2024-03-02T15:48:37.799Z,41.49
2024-03-02T15:51:06.739Z,41.70
2024-03-02T15:53:33.687Z,41.75
2024-03-02T15:56:00.150Z,41.89
2024-03-02T15:58:26.586Z,41.86
2024-03-02T16:00:53.124Z,41.66
2024-03-02T16:03:19.654Z,41.73
2024-03-02T16:05:46.102Z,41.45
2024-03-02T16:08:12.522Z,41.22
2024-03-02T16:10:38.950Z,41.41
2024-03-02T16:13:05.815Z,41.72
2024-03-02T16:15:32.342Z,41.28
2024-03-02T16:18:00.216Z,42.11
2024-03-02T16:20:26.730Z,41.69
2024-03-02T16:22:53.252Z,41.56
2024-03-02T16:25:19.687Z,42.09
2024-03-02T16:27:46.139Z,42.37
2024-03-02T16:30:12.928Z,42.25
2024-03-02T16:32:39.357Z,42.34
2024-03-02T16:35:06.722Z,42.36
2024-03-02T16:37:33.697Z,42.70
2024-03-02T16:40:00.219Z,42.61
2024-03-02T16:42:26.704Z,42.96
2024-03-02T16:44:56.045Z,42.90
2024-03-02T16:47:24.053Z,42.93
2024-03-02T16:49:50.679Z,43.36
2024-03-02T16:52:18.041Z,43.46
2024-03-02T16:54:44.962Z,42.83
2024-03-02T16:57:11.423Z,43.03
2024-03-02T16:59:37.901Z,42.98
2024-03-02T17:02:04.560Z,43.14
2024-03-02T17:04:31.146Z,42.80
2024-03-02T17:06:57.647Z,42.91
2024-03-02T17:09:24.140Z,43.13
2024-03-02T17:11:50.538Z,43.14
2024-03-02T17:14:17.091Z,43.56
2024-03-02T17:16:43.498Z,43.56
2024-03-02T17:19:10.036Z,43.75
2024-03-02T17:21:36.714Z,43.50
2024-03-02T17:24:03.885Z,43.89
2024-03-02T17:26:30.754Z,43.70
2024-03-02T17:28:57.258Z,43.69
2024-03-02T17:31:24.499Z,43.81
2024-03-02T17:33:50.922Z,43.79
2024-03-02T17:36:17.469Z,43.84
2024-03-02T17:38:44.255Z,44.11
2024-03-02T17:41:11.713Z,44.21
2024-03-02T17:43:39.073Z,44.14
2024-03-02T17:46:05.784Z,44.27
2024-03-02T17:48:32.754Z,44.40
2024-03-02T17:50:59.428Z,44.39
2024-03-02T17:53:25.862Z,44.43
2024-03-02T17:55:52.384Z,44.76
2024-03-02T17:58:18.831Z,44.65
2024-03-02T18:00:46.062Z,44.58
2024-03-02T18:03:12.537Z,44.76
2024-03-02T18:05:38.931Z,44.90
2024-03-02T18:08:06.408Z,44.93
2024-03-02T18:10:33.214Z,44.81
2024-03-02T18:12:59.754Z,44.85
2024-03-02T18:15:26.976Z,45.29
2024-03-02T18:17:53.563Z,45.28
2024-03-02T18:20:20.003Z,45.23
2024-03-02T18:22:46.653Z,45.30
2024-03-02T18:25:13.237Z,45.23
2024-03-02T18:27:39.918Z,45.34
2024-03-02T18:30:11.320Z,45.34
2024-03-02T18:32:42.420Z,45.59
2024-03-02T18:35:09.597Z,45.46
2024-03-02T18:37:39.081Z,45.33
2024-03-02T18:40:06.468Z,45.46
2024-03-02T18:42:33.422Z,45.59
2024-03-02T18:45:00.080Z,45.59
2024-03-02T18:47:27.791Z,45.77
2024-03-02T18:49:56.326Z,45.69
2024-03-02T18:52:23.150Z,45.81
2024-03-02T18:54:49.635Z,45.68
2024-03-02T18:57:16.113Z,45.97
2024-03-02T18:59:42.684Z,45.90
2024-03-02T19:02:09.182Z,45.70
2024-03-02T19:04:35.738Z,45.82
2024-03-02T19:07:02.259Z,45.94
2024-03-02T19:09:28.793Z,45.82
2024-03-02T19:11:56.344Z,46.00
2024-03-02T19:14:22.840Z,45.70
2024-03-02T19:16:49.392Z,45.71
2024-03-02T19:19:16.304Z,45.81
2024-03-02T19:21:43.838Z,45.65
2024-03-02T19:24:10.296Z,45.75
2024-03-02T19:26:36.848Z,45.72
2024-03-02T19:29:03.301Z,45.65
2024-03-02T19:31:29.742Z,45.65
2024-03-02T19:33:57.209Z,45.68
2024-03-02T19:36:24.343Z,45.68
2024-03-02T19:38:50.800Z,45.55
2024-03-02T19:41:18.577Z,45.72
2024-03-02T19:43:44.991Z,45.67
2024-03-02T19:46:12.655Z,45.75
2024-03-02T19:48:39.348Z,45.68
2024-03-02T19:51:05.835Z,45.54
2024-03-02T19:53:32.377Z,45.56
2024-03-02T19:55:58.837Z,45.77
2024-03-02T19:58:26.197Z,45.52
2024-03-02T20:00:52.827Z,45.46
2024-03-02T20:03:19.639Z,45.52
2024-03-02T20:05:46.109Z,45.71
2024-03-02T20:08:12.755Z,45.67
2024-03-02T20:10:39.157Z,46.24
2024-03-02T20:13:07.141Z,45.51
2024-03-02T20:15:33.939Z,45.61
2024-03-02T20:18:00.442Z,45.69
2024-03-02T20:20:26.989Z,45.57
2024-03-02T20:22:53.538Z,45.62
2024-03-02T20:25:20.155Z,45.64
2024-03-02T20:27:46.767Z,45.44
2024-03-02T20:30:13.817Z,45.45
2024-03-02T20:32:40.333Z,45.50
2024-03-02T20:35:07.452Z,45.41
2024-03-02T20:37:33.997Z,45.50
2024-03-02T20:40:00.705Z,45.46
2024-03-02T20:42:27.369Z,45.28
2024-03-02T20:44:53.872Z,45.15
2024-03-02T20:47:20.319Z,45.26
2024-03-02T20:49:46.847Z,45.25
2024-03-02T20:52:13.441Z,45.37
2024-03-02T20:54:40.051Z,45.43
2024-03-02T20:57:07.044Z,45.35
2024-03-02T20:59:34.755Z,45.14
2024-03-02T21:02:04.009Z,45.26
2024-03-02T21:04:31.097Z,45.33
2024-03-02T21:06:57.535Z,45.37
2024-03-02T21:09:24.064Z,44.75
2024-03-02T21:11:50.479Z,45.20
2024-03-02T21:14:16.886Z,44.78
2024-03-02T21:16:43.615Z,44.79
2024-03-02T21:19:10.570Z,45.20
2024-03-02T21:21:39.023Z,45.08
2024-03-02T21:24:05.909Z,44.86
2024-03-02T21:26:32.446Z,44.91
2024-03-02T21:28:58.881Z,44.94
2024-03-02T21:31:25.406Z,44.94
2024-03-02T21:33:51.892Z,44.81
2024-03-02T21:36:18.364Z,44.89
2024-03-02T21:38:44.842Z,45.04
2024-03-02T21:41:11.276Z,45.00
2024-03-02T21:43:38.474Z,45.02
2024-03-02T21:46:05.050Z,44.95
2024-03-02T21:48:31.523Z,44.65
2024-03-02T21:50:58.063Z,44.92
2024-03-02T21:53:24.489Z,45.03
2024-03-02T21:55:50.905Z,45.26
2024-03-02T21:58:17.479Z,45.26
2024-03-02T22:00:44.028Z,45.28
2024-03-02T22:03:10.475Z,45.11
2024-03-02T22:05:36.939Z,45.54
2024-03-02T22:08:03.715Z,45.31
2024-03-02T22:10:30.780Z,45.38
2024-03-02T22:12:57.287Z,45.68
2024-03-02T22:15:23.942Z,45.60
2024-03-02T22:17:50.622Z,45.68
2024-03-02T22:20:17.084Z,45.50
2024-03-02T22:22:43.539Z,45.79
2024-03-02T22:25:10.511Z,45.84
2024-03-02T22:27:41.904Z,46.03
2024-03-02T22:30:09.323Z,46.10
2024-03-02T22:32:35.779Z,45.83
2024-03-02T22:35:02.350Z,46.17
2024-03-02T22:37:28.795Z,46.26
2024-03-02T22:39:55.274Z,46.39
2024-03-02T22:42:21.710Z,46.53
2024-03-02T22:44:48.107Z,47.02
2024-03-02T22:47:14.483Z,46.78
2024-03-02T22:49:41.055Z,46.79
2024-03-02T22:52:07.539Z,46.84
2024-03-02T22:54:34.076Z,46.93
2024-03-02T22:57:02.229Z,46.66
2024-03-02T22:59:28.782Z,47.09
2024-03-02T23:01:55.554Z,47.19
2024-03-02T23:04:22.147Z,47.31
2024-03-02T23:06:49.560Z,47.42
2024-03-02T23:09:16.084Z,47.47
2024-03-02T23:11:42.518Z,47.32
2024-03-02T23:14:09.212Z,47.63
2024-03-02T23:16:38.193Z,47.83
2024-03-02T23:19:04.980Z,47.84
2024-03-02T23:21:31.622Z,47.72
2024-03-02T23:23:58.808Z,47.82
2024-03-02T23:26:26.084Z,48.00
2024-03-02T23:28:52.687Z,47.70
2024-03-02T23:31:19.661Z,47.88
2024-03-02T23:33:48.076Z,47.86
2024-03-02T23:36:14.638Z,48.01
2024-03-02T23:38:41.232Z,48.47
2024-03-02T23:41:15.788Z,47.78
2024-03-02T23:43:42.379Z,48.20
2024-03-02T23:46:12.156Z,48.32
2024-03-02T23:48:38.936Z,48.25
2024-03-02T23:51:05.559Z,48.46
2024-03-02T23:53:32.032Z,48.56
2024-03-02T23:56:08.812Z,48.40
2024-03-02T23:58:35.228Z,48.62
